Details From EDDB - Berlin Schoenefeld
To EPKK - Balice
Flight Number -
Tags Generated
Created
Modified
Stats Distance 275 nm / 509 km
Max Altitude 0 ft / 0 m
Waypoints 3
Social Downloads 3
Likes 0
Share VATSIM

Download

Looking for another format? Having issues loading an existing format? Contact us
Advertisement - Login to hide

Notes

Generated

Route

EDDB R1855 EPKK

ID Type Via Altitude Latitude Longitude Leg Dist Tot Dist Heading (true) Name
O EDDB APT - 0 ft / 0 m 52.38012˚ 13.51714˚ - 0 nm - Berlin Schoenefeld
R1855 FIX - 0 ft / 0 m 50.07979˚ 19.79965˚ 273 nm 273 nm 118° / 123° -
O EPKK APT - 0 ft / 0 m 50.07540˚ 19.76809˚ 1 nm 274 nm 258° / 258° -

Altitude Profile

Advertisement - Login to hide

Weather


0- 5 10 15 20 25 30 35+ Temperature / ° C

Clouds and Precipitation
Forecast for 2018-05-23 00:00 UTC. Updated 34 minutes ago

Ground ~20,000 ft ~40,000 ft Winds

EDDB

Details ICAO EDDB (BER)
Name Berlin Schoenefeld
Region Germany - Civil
Timezone Europe/Berlin (UTC+2.0)
Stats Elevation 157 ft / 48 m (AMSL)
Location 52.378541° 13.520629°
Runways 2
Magnetic Variation 3.865° E

METAR

EDDB 222320Z 05005KT CAVOK 13/07 Q1018 NOSIG

Decode

TAF

TAF EDDB 221700Z 2218/2318 04006KT CAVOK BECMG 2307/2309 05011KT

Decode

Departure Runways

ID Width Length Bearing (true) Bearing (mag) Surface Threshold Offset Overrun Length
07 148 ft / 45 m 9,817 ft / 2,992 m 68.75° 64.88° Asphalt 0 ft / 0 m 984 ft / 300 m
07L 148 ft / 45 m 8,867 ft / 2,703 m 68.77° 64.90° Concrete 0 ft / 0 m 525 ft / 160 m
25 148 ft / 45 m 9,817 ft / 2,992 m 248.78° 244.91° Asphalt 0 ft / 0 m 984 ft / 300 m
25R 148 ft / 45 m 8,867 ft / 2,703 m 248.80° 244.93° Concrete 0 ft / 0 m 984 ft / 300 m

EPKK

Details ICAO EPKK (KRK)
Name BALICE
Region Poland
Timezone Europe/Warsaw (UTC+2.0)
Stats Elevation 791 ft / 241 m (AMSL)
Location 50.077821° 19.785503°
Runways 1
Magnetic Variation 5.255° E

METAR

EPKK 222330Z VRB01KT CAVOK 13/11 Q1017

Decode

TAF

TAF EPKK 222030Z 2221/2321 VRB02KT CAVOK PROB30 TEMPO 2300/2306 4000 SHRA BKN040CB BECMG 2310/2313 08010KT TEMPO 2310/2321 VRB20G30KT 4000 TSRA BKN040CB

Decode

Destination Runways

ID Width Length Bearing (true) Bearing (mag) Surface Threshold Offset Overrun Length
07 197 ft / 60 m 8,343 ft / 2,543 m 77.75° 72.49° Concrete 0 ft / 0 m 0 ft / 0 m
25 197 ft / 60 m 8,343 ft / 2,543 m 257.77° 252.51° Concrete 784 ft / 239 m 0 ft / 0 m

Approach Navaids

Runway Type Ident Frequency Range Bearing (true) Bearing (mag) Slope Elevation
25 Localiser KRW 110.30 MHz 18 nm / 33 km 257.73° 252.48° - 791 ft / 241 m (AMSL)
25 Glidescope KRW 110.30 MHz 10 nm / 19 km 257.76° 252.50° 3.00° 791 ft / 241 m (AMSL)
25 DME KRW 110.30 MHz 18 nm / 33 km - - - 827 ft / 252 m (AMSL)

Popular Alternatives